createdAt,value
2022-08-18T00:09:38.256Z,89.98
2022-08-18T00:20:00.868Z,90.57
2022-08-18T00:30:07.815Z,89.54
2022-08-18T00:40:37.836Z,90.39
2022-08-18T00:51:09.687Z,91.05
2022-08-18T01:01:59.608Z,92.03
2022-08-18T01:13:20.692Z,92.38
2022-08-18T01:23:32.104Z,92.40
2022-08-18T01:33:59.321Z,92.68
2022-08-18T01:44:04.969Z,93.33
2022-08-18T01:54:56.396Z,93.15
2022-08-18T02:05:41.531Z,93.05
2022-08-18T02:15:47.126Z,93.74
2022-08-18T02:26:18.095Z,92.85
2022-08-18T02:36:44.656Z,93.77
2022-08-18T02:47:00.610Z,94.57
2022-08-18T02:57:54.372Z,94.92
2022-08-18T03:08:03.528Z,95.25
2022-08-18T03:18:35.307Z,95.15
2022-08-18T03:28:49.351Z,95.25
2022-08-18T03:38:54.839Z,96.09
2022-08-18T03:49:05.698Z,96.67
2022-08-18T03:59:30.485Z,97.15
2022-08-18T04:09:47.371Z,97.88
2022-08-18T04:21:07.593Z,98.45
2022-08-18T04:31:38.331Z,98.36
2022-08-18T04:41:51.529Z,98.13
2022-08-18T04:53:04.550Z,98.58
2022-08-18T05:03:17.033Z,98.98
2022-08-18T05:13:20.139Z,98.42
2022-08-18T05:23:46.107Z,97.36
2022-08-18T05:33:51.869Z,96.77
2022-08-18T05:43:59.512Z,94.64
2022-08-18T06:05:26.371Z,92.30
2022-08-18T06:16:37.580Z,92.15
2022-08-18T06:34:12.490Z,90.78
2022-08-18T06:39:27.957Z,89.78
2022-08-18T07:00:50.842Z,87.07
2022-08-18T07:11:17.266Z,85.43
2022-08-18T07:21:49.201Z,84.30
2022-08-18T07:31:57.181Z,81.27
2022-08-18T07:53:36.891Z,74.13
2022-08-18T08:04:05.480Z,71.88
2022-08-18T08:14:50.716Z,70.23
2022-08-18T08:25:42.292Z,69.23
2022-08-18T08:35:48.930Z,68.08
2022-08-18T08:58:01.062Z,65.75
2022-08-18T09:08:28.158Z,64.19
2022-08-18T09:19:05.287Z,61.83
2022-08-18T09:30:12.128Z,62.23
2022-08-18T09:41:10.064Z,60.37
2022-08-18T10:02:32.516Z,60.67
2022-08-18T10:14:18.254Z,59.63
2022-08-18T10:25:09.171Z,59.49
2022-08-18T10:47:12.126Z,57.87
2022-08-18T11:09:28.891Z,57.21
2022-08-18T11:20:01.248Z,54.68
2022-08-18T11:30:31.066Z,54.39
2022-08-18T11:41:19.200Z,52.89
2022-08-18T11:52:15.312Z,51.71
2022-08-18T12:03:15.122Z,51.92
2022-08-18T12:13:47.198Z,52.89
2022-08-18T12:23:55.423Z,52.42
2022-08-18T12:34:05.240Z,52.09
2022-08-18T12:44:19.190Z,52.20
2022-08-18T13:05:13.710Z,53.15
2022-08-18T13:15:16.226Z,52.82
2022-08-18T13:27:22.985Z,53.39
2022-08-18T13:36:22.502Z,53.79
2022-08-18T13:46:57.406Z,51.92
2022-08-18T14:08:39.266Z,49.92
2022-08-18T14:42:02.920Z,50.48
2022-08-18T14:52:31.914Z,50.45
2022-08-18T15:02:45.383Z,50.63
2022-08-18T15:12:48.741Z,51.34
2022-08-18T15:23:13.263Z,51.23
2022-08-18T15:33:42.816Z,51.05
2022-08-18T15:43:50.371Z,51.10
2022-08-18T16:17:18.183Z,51.85
2022-08-18T16:39:44.087Z,53.28
2022-08-18T17:53:49.094Z,61.74
2022-08-18T18:57:40.701Z,68.70
2022-08-18T19:50:20.991Z,73.05
2022-08-18T20:12:19.441Z,74.41
2022-08-18T20:23:11.586Z,75.02
2022-08-18T20:33:26.063Z,75.09
2022-08-18T20:44:10.522Z,74.89
2022-08-18T20:54:29.888Z,75.06
2022-08-18T21:36:11.079Z,75.27
2022-08-18T21:56:41.856Z,75.04
2022-08-18T22:29:45.689Z,74.80
2022-08-18T22:50:20.713Z,76.35
2022-08-18T23:21:05.267Z,77.82
2022-08-18T23:31:07.482Z,78.64
2022-08-18T23:52:15.172Z,79.54
